sensor_id;sensor_type;location;lat;lon;timestamp;P1;durP1;ratioP1;P2;durP2;ratioP2
77350;SDS011;66420;50.246;14.320;2023-10-09T00:01:01;5.63;;;3.00;;
77350;SDS011;66420;50.246;14.320;2023-10-09T00:03:57;7.50;;;2.97;;
77350;SDS011;66420;50.246;14.320;2023-10-09T00:06:45;7.40;;;3.22;;
77350;SDS011;66420;50.246;14.320;2023-10-09T00:09:31;6.80;;;3.10;;
77350;SDS011;66420;50.246;14.320;2023-10-09T00:12:16;8.55;;;3.08;;
77350;SDS011;66420;50.246;14.320;2023-10-09T00:15:06;8.88;;;3.28;;
77350;SDS011;66420;50.246;14.320;2023-10-09T00:17:56;7.85;;;3.20;;
77350;SDS011;66420;50.246;14.320;2023-10-09T00:20:43;10.40;;;3.65;;
77350;SDS011;66420;50.246;14.320;2023-10-09T00:23:28;9.23;;;3.58;;
77350;SDS011;66420;50.246;14.320;2023-10-09T00:26:16;11.02;;;4.07;;
77350;SDS011;66420;50.246;14.320;2023-10-09T00:29:01;8.57;;;3.88;;
77350;SDS011;66420;50.246;14.320;2023-10-09T00:31:52;7.82;;;3.45;;
77350;SDS011;66420;50.246;14.320;2023-10-09T00:35:10;10.10;;;3.53;;
77350;SDS011;66420;50.246;14.320;2023-10-09T00:38:18;9.57;;;3.95;;
77350;SDS011;66420;50.246;14.320;2023-10-09T00:41:06;14.40;;;4.22;;
77350;SDS011;66420;50.246;14.320;2023-10-09T00:43:53;7.70;;;3.55;;
77350;SDS011;66420;50.246;14.320;2023-10-09T00:46:40;7.10;;;3.70;;
77350;SDS011;66420;50.246;14.320;2023-10-09T00:49:27;10.05;;;3.92;;
77350;SDS011;66420;50.246;14.320;2023-10-09T00:52:15;8.40;;;3.53;;
77350;SDS011;66420;50.246;14.320;2023-10-09T00:55:15;10.60;;;3.83;;
77350;SDS011;66420;50.246;14.320;2023-10-09T00:58:06;8.27;;;3.72;;
77350;SDS011;66420;50.246;14.320;2023-10-09T01:00:56;6.85;;;3.60;;
77350;SDS011;66420;50.246;14.320;2023-10-09T01:03:43;7.93;;;3.85;;
77350;SDS011;66420;50.246;14.320;2023-10-09T01:06:29;9.88;;;3.70;;
77350;SDS011;66420;50.246;14.320;2023-10-09T01:09:17;6.35;;;3.60;;
77350;SDS011;66420;50.246;14.320;2023-10-09T01:12:01;5.97;;;3.65;;
77350;SDS011;66420;50.246;14.320;2023-10-09T01:14:46;9.05;;;3.70;;
77350;SDS011;66420;50.246;14.320;2023-10-09T01:17:38;7.85;;;3.42;;
77350;SDS011;66420;50.246;14.320;2023-10-09T01:20:29;8.10;;;3.50;;
77350;SDS011;66420;50.246;14.320;2023-10-09T01:23:15;6.30;;;3.60;;
77350;SDS011;66420;50.246;14.320;2023-10-09T01:26:00;8.93;;;3.50;;
77350;SDS011;66420;50.246;14.320;2023-10-09T01:28:45;10.30;;;3.60;;
77350;SDS011;66420;50.246;14.320;2023-10-09T01:31:30;7.13;;;3.33;;
77350;SDS011;66420;50.246;14.320;2023-10-09T01:37:09;6.38;;;3.40;;
77350;SDS011;66420;50.246;14.320;2023-10-09T01:40:10;5.95;;;2.80;;
77350;SDS011;66420;50.246;14.320;2023-10-09T01:43:19;7.72;;;3.42;;
77350;SDS011;66420;50.246;14.320;2023-10-09T01:46:05;8.60;;;3.15;;
77350;SDS011;66420;50.246;14.320;2023-10-09T01:48:53;5.32;;;3.03;;
77350;SDS011;66420;50.246;14.320;2023-10-09T01:51:39;6.38;;;2.85;;
77350;SDS011;66420;50.246;14.320;2023-10-09T01:54:25;6.50;;;3.00;;
77350;SDS011;66420;50.246;14.320;2023-10-09T01:57:22;6.20;;;2.88;;
77350;SDS011;66420;50.246;14.320;2023-10-09T02:00:08;5.50;;;2.92;;
77350;SDS011;66420;50.246;14.320;2023-10-09T02:02:54;6.38;;;2.67;;
77350;SDS011;66420;50.246;14.320;2023-10-09T02:05:38;6.50;;;3.05;;
77350;SDS011;66420;50.246;14.320;2023-10-09T02:08:23;6.55;;;3.13;;
77350;SDS011;66420;50.246;14.320;2023-10-09T02:11:11;5.55;;;2.85;;
77350;SDS011;66420;50.246;14.320;2023-10-09T02:13:58;5.20;;;2.40;;
77350;SDS011;66420;50.246;14.320;2023-10-09T02:16:46;6.50;;;3.05;;
77350;SDS011;66420;50.246;14.320;2023-10-09T02:19:46;4.70;;;2.65;;
77350;SDS011;66420;50.246;14.320;2023-10-09T02:22:34;6.05;;;2.70;;
77350;SDS011;66420;50.246;14.320;2023-10-09T02:25:18;7.03;;;3.13;;
77350;SDS011;66420;50.246;14.320;2023-10-09T02:28:06;5.32;;;3.08;;
77350;SDS011;66420;50.246;14.320;2023-10-09T02:30:51;6.43;;;2.78;;
77350;SDS011;66420;50.246;14.320;2023-10-09T02:33:36;5.68;;;2.60;;
77350;SDS011;66420;50.246;14.320;2023-10-09T02:36:23;8.23;;;2.75;;
77350;SDS011;66420;50.246;14.320;2023-10-09T02:39:09;6.38;;;2.70;;
77350;SDS011;66420;50.246;14.320;2023-10-09T02:42:07;5.72;;;2.85;;
77350;SDS011;66420;50.246;14.320;2023-10-09T02:44:57;4.47;;;2.53;;
77350;SDS011;66420;50.246;14.320;2023-10-09T02:47:43;5.03;;;2.63;;
77350;SDS011;66420;50.246;14.320;2023-10-09T02:50:34;5.25;;;2.40;;
77350;SDS011;66420;50.246;14.320;2023-10-09T02:53:22;6.72;;;2.58;;
77350;SDS011;66420;50.246;14.320;2023-10-09T02:56:14;5.20;;;2.50;;
77350;SDS011;66420;50.246;14.320;2023-10-09T02:59:02;4.50;;;2.25;;
77350;SDS011;66420;50.246;14.320;2023-10-09T03:01:51;6.90;;;2.65;;
77350;SDS011;66420;50.246;14.320;2023-10-09T03:04:36;6.43;;;2.50;;
77350;SDS011;66420;50.246;14.320;2023-10-09T03:07:23;6.25;;;3.03;;
77350;SDS011;66420;50.246;14.320;2023-10-09T03:10:08;7.15;;;2.70;;
77350;SDS011;66420;50.246;14.320;2023-10-09T03:12:53;6.32;;;2.60;;
77350;SDS011;66420;50.246;14.320;2023-10-09T03:15:38;4.05;;;2.22;;
77350;SDS011;66420;50.246;14.320;2023-10-09T03:18:23;5.90;;;2.95;;
77350;SDS011;66420;50.246;14.320;2023-10-09T03:21:08;6.68;;;2.97;;
77350;SDS011;66420;50.246;14.320;2023-10-09T03:23:55;6.70;;;2.90;;
77350;SDS011;66420;50.246;14.320;2023-10-09T03:26:41;5.15;;;2.75;;
77350;SDS011;66420;50.246;14.320;2023-10-09T03:29:29;6.22;;;2.70;;
77350;SDS011;66420;50.246;14.320;2023-10-09T03:32:14;4.28;;;2.45;;
77350;SDS011;66420;50.246;14.320;2023-10-09T03:34:59;7.70;;;2.55;;
77350;SDS011;66420;50.246;14.320;2023-10-09T03:37:44;7.47;;;2.92;;
77350;SDS011;66420;50.246;14.320;2023-10-09T03:40:28;7.60;;;3.15;;
77350;SDS011;66420;50.246;14.320;2023-10-09T03:43:13;4.35;;;2.75;;
77350;SDS011;66420;50.246;14.320;2023-10-09T03:45:58;5.45;;;2.58;;
77350;SDS011;66420;50.246;14.320;2023-10-09T03:48:43;6.30;;;2.70;;
77350;SDS011;66420;50.246;14.320;2023-10-09T03:51:30;7.38;;;2.75;;
77350;SDS011;66420;50.246;14.320;2023-10-09T03:54:16;5.43;;;2.35;;
77350;SDS011;66420;50.246;14.320;2023-10-09T03:57:04;4.85;;;2.45;;
77350;SDS011;66420;50.246;14.320;2023-10-09T03:59:50;4.85;;;2.80;;
77350;SDS011;66420;50.246;14.320;2023-10-09T04:02:35;5.65;;;2.45;;
77350;SDS011;66420;50.246;14.320;2023-10-09T04:05:20;6.75;;;2.53;;
77350;SDS011;66420;50.246;14.320;2023-10-09T04:08:05;5.03;;;2.35;;
77350;SDS011;66420;50.246;14.320;2023-10-09T04:10:58;5.30;;;2.92;;
77350;SDS011;66420;50.246;14.320;2023-10-09T04:13:47;6.57;;;2.50;;
77350;SDS011;66420;50.246;14.320;2023-10-09T04:16:31;4.95;;;2.55;;
77350;SDS011;66420;50.246;14.320;2023-10-09T04:19:16;5.75;;;2.38;;
77350;SDS011;66420;50.246;14.320;2023-10-09T04:22:06;5.38;;;2.42;;
77350;SDS011;66420;50.246;14.320;2023-10-09T04:24:53;4.90;;;2.58;;
77350;SDS011;66420;50.246;14.320;2023-10-09T04:27:38;6.00;;;2.85;;
77350;SDS011;66420;50.246;14.320;2023-10-09T04:30:22;4.95;;;2.90;;
77350;SDS011;66420;50.246;14.320;2023-10-09T04:33:11;6.35;;;3.00;;
77350;SDS011;66420;50.246;14.320;2023-10-09T04:36:12;7.28;;;2.92;;
77350;SDS011;66420;50.246;14.320;2023-10-09T04:39:03;5.10;;;2.30;;
77350;SDS011;66420;50.246;14.320;2023-10-09T04:41:48;7.90;;;3.15;;
77350;SDS011;66420;50.246;14.320;2023-10-09T04:44:32;6.15;;;2.85;;
77350;SDS011;66420;50.246;14.320;2023-10-09T04:47:20;5.93;;;2.45;;
77350;SDS011;66420;50.246;14.320;2023-10-09T04:52:45;8.15;;;3.05;;
77350;SDS011;66420;50.246;14.320;2023-10-09T04:55:36;4.55;;;2.60;;
77350;SDS011;66420;50.246;14.320;2023-10-09T04:58:23;5.05;;;2.40;;
77350;SDS011;66420;50.246;14.320;2023-10-09T05:01:11;6.13;;;2.55;;
77350;SDS011;66420;50.246;14.320;2023-10-09T05:03:57;6.45;;;2.95;;
77350;SDS011;66420;50.246;14.320;2023-10-09T05:06:47;5.28;;;2.20;;
77350;SDS011;66420;50.246;14.320;2023-10-09T05:09:39;5.75;;;2.55;;
77350;SDS011;66420;50.246;14.320;2023-10-09T05:12:40;7.05;;;2.70;;
77350;SDS011;66420;50.246;14.320;2023-10-09T05:15:31;5.80;;;2.33;;
77350;SDS011;66420;50.246;14.320;2023-10-09T05:18:18;9.45;;;2.65;;
77350;SDS011;66420;50.246;14.320;2023-10-09T05:21:11;8.00;;;3.03;;
77350;SDS011;66420;50.246;14.320;2023-10-09T05:24:00;9.00;;;3.50;;
77350;SDS011;66420;50.246;14.320;2023-10-09T05:26:58;7.57;;;2.40;;
77350;SDS011;66420;50.246;14.320;2023-10-09T05:30:01;5.78;;;2.70;;
77350;SDS011;66420;50.246;14.320;2023-10-09T05:33:05;5.50;;;2.80;;
77350;SDS011;66420;50.246;14.320;2023-10-09T05:36:09;6.00;;;2.83;;
77350;SDS011;66420;50.246;14.320;2023-10-09T05:39:09;15.35;;;3.83;;
77350;SDS011;66420;50.246;14.320;2023-10-09T05:42:13;13.10;;;4.30;;
77350;SDS011;66420;50.246;14.320;2023-10-09T05:45:12;11.95;;;3.63;;
77350;SDS011;66420;50.246;14.320;2023-10-09T05:48:01;8.20;;;3.20;;
77350;SDS011;66420;50.246;14.320;2023-10-09T05:50:49;7.07;;;2.97;;
77350;SDS011;66420;50.246;14.320;2023-10-09T05:53:54;6.65;;;2.83;;
77350;SDS011;66420;50.246;14.320;2023-10-09T05:57:05;5.93;;;2.80;;
77350;SDS011;66420;50.246;14.320;2023-10-09T06:00:09;5.63;;;3.03;;
77350;SDS011;66420;50.246;14.320;2023-10-09T06:03:13;5.65;;;2.65;;
77350;SDS011;66420;50.246;14.320;2023-10-09T06:06:04;7.07;;;2.83;;
77350;SDS011;66420;50.246;14.320;2023-10-09T06:08:50;6.60;;;2.80;;
77350;SDS011;66420;50.246;14.320;2023-10-09T06:11:54;5.95;;;2.70;;
77350;SDS011;66420;50.246;14.320;2023-10-09T06:14:40;5.93;;;2.67;;
77350;SDS011;66420;50.246;14.320;2023-10-09T06:17:42;4.53;;;2.47;;
77350;SDS011;66420;50.246;14.320;2023-10-09T06:20:35;7.35;;;3.08;;
77350;SDS011;66420;50.246;14.320;2023-10-09T06:23:38;5.43;;;2.67;;
77350;SDS011;66420;50.246;14.320;2023-10-09T06:26:44;4.82;;;2.40;;
77350;SDS011;66420;50.246;14.320;2023-10-09T06:29:52;4.40;;;2.20;;
77350;SDS011;66420;50.246;14.320;2023-10-09T06:32:56;5.10;;;2.72;;
77350;SDS011;66420;50.246;14.320;2023-10-09T06:36:00;5.95;;;3.30;;
77350;SDS011;66420;50.246;14.320;2023-10-09T06:38:52;7.45;;;3.00;;
77350;SDS011;66420;50.246;14.320;2023-10-09T06:41:52;6.90;;;3.13;;
77350;SDS011;66420;50.246;14.320;2023-10-09T06:44:52;5.72;;;2.92;;
77350;SDS011;66420;50.246;14.320;2023-10-09T06:47:38;5.60;;;3.20;;
77350;SDS011;66420;50.246;14.320;2023-10-09T06:50:37;8.85;;;3.75;;
77350;SDS011;66420;50.246;14.320;2023-10-09T06:53:42;8.60;;;3.58;;
77350;SDS011;66420;50.246;14.320;2023-10-09T06:56:39;5.18;;;2.92;;
77350;SDS011;66420;50.246;14.320;2023-10-09T06:59:53;6.95;;;3.03;;
77350;SDS011;66420;50.246;14.320;2023-10-09T07:02:56;6.35;;;3.30;;
77350;SDS011;66420;50.246;14.320;2023-10-09T07:05:42;4.70;;;2.60;;
77350;SDS011;66420;50.246;14.320;2023-10-09T07:08:55;5.13;;;3.08;;
77350;SDS011;66420;50.246;14.320;2023-10-09T07:11:50;6.05;;;3.10;;
77350;SDS011;66420;50.246;14.320;2023-10-09T07:14:35;5.18;;;2.70;;
77350;SDS011;66420;50.246;14.320;2023-10-09T07:17:21;6.82;;;3.20;;
77350;SDS011;66420;50.246;14.320;2023-10-09T07:20:17;6.45;;;3.20;;
77350;SDS011;66420;50.246;14.320;2023-10-09T07:23:21;8.52;;;4.03;;
77350;SDS011;66420;50.246;14.320;2023-10-09T07:26:05;6.60;;;3.63;;
77350;SDS011;66420;50.246;14.320;2023-10-09T07:29:21;8.70;;;3.60;;
77350;SDS011;66420;50.246;14.320;2023-10-09T07:32:08;7.65;;;3.90;;
77350;SDS011;66420;50.246;14.320;2023-10-09T07:34:56;8.45;;;4.25;;
77350;SDS011;66420;50.246;14.320;2023-10-09T07:37:43;9.85;;;4.25;;
77350;SDS011;66420;50.246;14.320;2023-10-09T07:40:27;10.90;;;4.38;;
77350;SDS011;66420;50.246;14.320;2023-10-09T07:43:15;10.30;;;4.28;;
77350;SDS011;66420;50.246;14.320;2023-10-09T07:46:03;10.00;;;4.38;;
77350;SDS011;66420;50.246;14.320;2023-10-09T07:48:49;8.52;;;4.05;;
77350;SDS011;66420;50.246;14.320;2023-10-09T07:51:38;9.20;;;4.22;;
77350;SDS011;66420;50.246;14.320;2023-10-09T07:54:28;8.05;;;4.32;;
77350;SDS011;66420;50.246;14.320;2023-10-09T07:57:20;6.63;;;3.55;;
77350;SDS011;66420;50.246;14.320;2023-10-09T08:00:13;8.38;;;4.50;;
77350;SDS011;66420;50.246;14.320;2023-10-09T08:03:16;8.10;;;4.57;;
77350;SDS011;66420;50.246;14.320;2023-10-09T08:06:16;12.68;;;4.28;;
77350;SDS011;66420;50.246;14.320;2023-10-09T08:09:20;8.32;;;4.40;;
77350;SDS011;66420;50.246;14.320;2023-10-09T08:12:23;7.88;;;4.00;;
77350;SDS011;66420;50.246;14.320;2023-10-09T08:15:26;10.50;;;4.40;;
77350;SDS011;66420;50.246;14.320;2023-10-09T08:18:18;11.40;;;5.07;;
77350;SDS011;66420;50.246;14.320;2023-10-09T08:21:12;8.43;;;3.83;;
77350;SDS011;66420;50.246;14.320;2023-10-09T08:23:56;7.75;;;4.57;;
77350;SDS011;66420;50.246;14.320;2023-10-09T08:26:49;11.55;;;5.15;;
77350;SDS011;66420;50.246;14.320;2023-10-09T08:29:52;11.65;;;5.18;;
77350;SDS011;66420;50.246;14.320;2023-10-09T08:32:57;8.93;;;4.90;;
77350;SDS011;66420;50.246;14.320;2023-10-09T08:35:48;11.35;;;5.00;;
77350;SDS011;66420;50.246;14.320;2023-10-09T08:38:33;12.30;;;5.28;;
77350;SDS011;66420;50.246;14.320;2023-10-09T08:41:18;12.00;;;4.60;;
77350;SDS011;66420;50.246;14.320;2023-10-09T08:44:07;10.57;;;5.10;;
77350;SDS011;66420;50.246;14.320;2023-10-09T08:46:56;7.50;;;4.40;;
77350;SDS011;66420;50.246;14.320;2023-10-09T08:49:41;11.30;;;4.82;;
77350;SDS011;66420;50.246;14.320;2023-10-09T08:52:26;8.05;;;4.68;;
77350;SDS011;66420;50.246;14.320;2023-10-09T08:55:11;10.90;;;5.10;;
77350;SDS011;66420;50.246;14.320;2023-10-09T08:57:57;11.27;;;4.88;;
77350;SDS011;66420;50.246;14.320;2023-10-09T09:00:43;12.23;;;4.93;;
77350;SDS011;66420;50.246;14.320;2023-10-09T09:03:40;8.52;;;4.72;;
77350;SDS011;66420;50.246;14.320;2023-10-09T09:06:35;13.32;;;5.28;;
77350;SDS011;66420;50.246;14.320;2023-10-09T09:09:23;10.68;;;5.13;;
77350;SDS011;66420;50.246;14.320;2023-10-09T09:12:08;13.60;;;5.38;;
77350;SDS011;66420;50.246;14.320;2023-10-09T09:14:59;9.30;;;5.22;;
77350;SDS011;66420;50.246;14.320;2023-10-09T09:17:44;9.55;;;5.38;;
77350;SDS011;66420;50.246;14.320;2023-10-09T09:20:29;11.07;;;5.93;;
77350;SDS011;66420;50.246;14.320;2023-10-09T09:23:19;13.20;;;5.80;;
77350;SDS011;66420;50.246;14.320;2023-10-09T09:26:07;9.20;;;5.38;;
77350;SDS011;66420;50.246;14.320;2023-10-09T09:28:56;10.38;;;6.13;;
77350;SDS011;66420;50.246;14.320;2023-10-09T09:31:53;9.68;;;4.88;;
77350;SDS011;66420;50.246;14.320;2023-10-09T09:34:45;11.80;;;5.78;;
77350;SDS011;66420;50.246;14.320;2023-10-09T09:37:38;11.25;;;6.05;;
77350;SDS011;66420;50.246;14.320;2023-10-09T09:40:26;16.63;;;6.80;;
77350;SDS011;66420;50.246;14.320;2023-10-09T09:43:14;12.85;;;6.80;;
77350;SDS011;66420;50.246;14.320;2023-10-09T09:46:08;13.90;;;6.22;;
77350;SDS011;66420;50.246;14.320;2023-10-09T09:48:55;13.50;;;7.03;;
77350;SDS011;66420;50.246;14.320;2023-10-09T09:51:44;16.60;;;7.68;;
77350;SDS011;66420;50.246;14.320;2023-10-09T09:54:31;12.23;;;6.90;;
77350;SDS011;66420;50.246;14.320;2023-10-09T09:57:21;15.73;;;6.88;;
77350;SDS011;66420;50.246;14.320;2023-10-09T10:00:13;13.30;;;7.53;;
77350;SDS011;66420;50.246;14.320;2023-10-09T10:03:16;16.77;;;8.07;;
77350;SDS011;66420;50.246;14.320;2023-10-09T10:06:05;16.35;;;8.15;;
77350;SDS011;66420;50.246;14.320;2023-10-09T10:11:43;14.45;;;7.40;;
77350;SDS011;66420;50.246;14.320;2023-10-09T10:24:00;11.93;;;6.00;;
77350;SDS011;66420;50.246;14.320;2023-10-09T10:27:08;14.65;;;6.57;;
77350;SDS011;66420;50.246;14.320;2023-10-09T10:33:14;11.50;;;5.75;;
77350;SDS011;66420;50.246;14.320;2023-10-09T10:36:02;12.38;;;6.63;;
77350;SDS011;66420;50.246;14.320;2023-10-09T10:38:59;10.70;;;5.97;;
77350;SDS011;66420;50.246;14.320;2023-10-09T10:41:56;12.18;;;6.88;;
77350;SDS011;66420;50.246;14.320;2023-10-09T10:44:45;15.27;;;7.50;;
77350;SDS011;66420;50.246;14.320;2023-10-09T10:47:29;11.98;;;7.15;;
77350;SDS011;66420;50.246;14.320;2023-10-09T10:50:18;13.25;;;7.00;;
77350;SDS011;66420;50.246;14.320;2023-10-09T10:53:14;14.50;;;8.23;;
77350;SDS011;66420;50.246;14.320;2023-10-09T10:56:00;15.90;;;7.80;;
77350;SDS011;66420;50.246;14.320;2023-10-09T10:58:57;15.65;;;7.25;;
77350;SDS011;66420;50.246;14.320;2023-10-09T11:01:48;12.48;;;7.28;;
77350;SDS011;66420;50.246;14.320;2023-10-09T11:05:03;13.05;;;6.95;;
77350;SDS011;66420;50.246;14.320;2023-10-09T11:08:10;16.00;;;7.07;;
77350;SDS011;66420;50.246;14.320;2023-10-09T11:11:09;10.30;;;5.93;;
77350;SDS011;66420;50.246;14.320;2023-10-09T11:14:07;13.07;;;5.68;;
77350;SDS011;66420;50.246;14.320;2023-10-09T11:17:21;15.15;;;7.80;;
77350;SDS011;66420;50.246;14.320;2023-10-09T11:20:09;13.77;;;6.28;;
77350;SDS011;66420;50.246;14.320;2023-10-09T11:23:10;12.43;;;6.97;;
77350;SDS011;66420;50.246;14.320;2023-10-09T11:25:55;16.58;;;8.65;;
77350;SDS011;66420;50.246;14.320;2023-10-09T11:29:13;13.45;;;6.43;;
77350;SDS011;66420;50.246;14.320;2023-10-09T11:32:07;8.57;;;4.20;;
77350;SDS011;66420;50.246;14.320;2023-10-09T11:35:14;7.93;;;3.88;;
77350;SDS011;66420;50.246;14.320;2023-10-09T11:38:05;9.13;;;4.93;;
77350;SDS011;66420;50.246;14.320;2023-10-09T11:41:11;8.07;;;4.30;;
77350;SDS011;66420;50.246;14.320;2023-10-09T11:44:03;10.38;;;4.13;;
77350;SDS011;66420;50.246;14.320;2023-10-09T11:46:58;7.63;;;4.00;;
77350;SDS011;66420;50.246;14.320;2023-10-09T11:50:13;6.90;;;4.00;;
77350;SDS011;66420;50.246;14.320;2023-10-09T11:52:58;8.45;;;3.90;;
77350;SDS011;66420;50.246;14.320;2023-10-09T11:55:53;11.07;;;4.05;;
77350;SDS011;66420;50.246;14.320;2023-10-09T12:01:19;7.82;;;3.70;;
77350;SDS011;66420;50.246;14.320;2023-10-09T12:04:07;9.40;;;3.50;;
77350;SDS011;66420;50.246;14.320;2023-10-09T12:06:53;8.50;;;3.83;;
77350;SDS011;66420;50.246;14.320;2023-10-09T12:09:51;8.50;;;3.60;;
77350;SDS011;66420;50.246;14.320;2023-10-09T12:12:40;7.10;;;3.33;;
77350;SDS011;66420;50.246;14.320;2023-10-09T12:15:31;12.40;;;4.80;;
77350;SDS011;66420;50.246;14.320;2023-10-09T12:18:22;8.95;;;4.05;;
77350;SDS011;66420;50.246;14.320;2023-10-09T12:21:08;9.15;;;4.60;;
77350;SDS011;66420;50.246;14.320;2023-10-09T12:23:59;9.23;;;4.10;;
77350;SDS011;66420;50.246;14.320;2023-10-09T12:26:45;12.52;;;4.95;;
77350;SDS011;66420;50.246;14.320;2023-10-09T12:29:30;8.25;;;4.65;;
77350;SDS011;66420;50.246;14.320;2023-10-09T12:32:15;9.23;;;4.78;;
77350;SDS011;66420;50.246;14.320;2023-10-09T12:35:03;10.15;;;4.53;;
77350;SDS011;66420;50.246;14.320;2023-10-09T12:38:01;9.50;;;4.95;;
77350;SDS011;66420;50.246;14.320;2023-10-09T12:40:46;8.95;;;4.80;;
77350;SDS011;66420;50.246;14.320;2023-10-09T12:43:39;7.15;;;4.53;;
77350;SDS011;66420;50.246;14.320;2023-10-09T12:46:27;11.00;;;4.80;;
77350;SDS011;66420;50.246;14.320;2023-10-09T12:49:16;10.88;;;5.10;;
77350;SDS011;66420;50.246;14.320;2023-10-09T12:52:01;12.02;;;4.90;;
77350;SDS011;66420;50.246;14.320;2023-10-09T12:54:45;8.50;;;4.38;;
77350;SDS011;66420;50.246;14.320;2023-10-09T12:57:30;10.48;;;5.00;;
77350;SDS011;66420;50.246;14.320;2023-10-09T13:19:53;7.25;;;3.97;;
77350;SDS011;66420;50.246;14.320;2023-10-09T15:43:05;12.18;;;5.38;;
77350;SDS011;66420;50.246;14.320;2023-10-09T15:45:50;14.82;;;5.75;;
77350;SDS011;66420;50.246;14.320;2023-10-09T15:48:35;11.70;;;4.85;;
77350;SDS011;66420;50.246;14.320;2023-10-09T15:51:21;15.07;;;5.43;;
77350;SDS011;66420;50.246;14.320;2023-10-09T15:54:06;10.55;;;5.50;;
77350;SDS011;66420;50.246;14.320;2023-10-09T15:56:55;11.43;;;5.05;;
77350;SDS011;66420;50.246;14.320;2023-10-09T15:59:40;13.38;;;6.05;;
77350;SDS011;66420;50.246;14.320;2023-10-09T16:02:25;12.20;;;5.35;;
77350;SDS011;66420;50.246;14.320;2023-10-09T16:05:10;14.15;;;5.70;;
77350;SDS011;66420;50.246;14.320;2023-10-09T16:07:57;12.18;;;5.90;;
77350;SDS011;66420;50.246;14.320;2023-10-09T16:10:44;12.77;;;5.88;;
77350;SDS011;66420;50.246;14.320;2023-10-09T16:13:31;13.15;;;6.07;;
77350;SDS011;66420;50.246;14.320;2023-10-09T16:16:26;15.55;;;6.00;;
77350;SDS011;66420;50.246;14.320;2023-10-09T16:19:12;11.43;;;6.20;;
77350;SDS011;66420;50.246;14.320;2023-10-09T16:21:57;12.82;;;5.40;;
77350;SDS011;66420;50.246;14.320;2023-10-09T16:24:42;9.70;;;5.57;;
77350;SDS011;66420;50.246;14.320;2023-10-09T16:27:28;10.57;;;5.72;;
77350;SDS011;66420;50.246;14.320;2023-10-09T16:30:16;11.57;;;5.55;;
77350;SDS011;66420;50.246;14.320;2023-10-09T16:33:05;14.27;;;6.25;;
77350;SDS011;66420;50.246;14.320;2023-10-09T16:35:50;13.40;;;5.65;;
77350;SDS011;66420;50.246;14.320;2023-10-09T16:38:38;9.13;;;5.55;;
77350;SDS011;66420;50.246;14.320;2023-10-09T16:41:23;15.73;;;6.53;;
77350;SDS011;66420;50.246;14.320;2023-10-09T16:44:10;12.40;;;7.05;;
77350;SDS011;66420;50.246;14.320;2023-10-09T16:46:55;14.57;;;6.07;;
77350;SDS011;66420;50.246;14.320;2023-10-09T16:49:40;11.13;;;5.45;;
77350;SDS011;66420;50.246;14.320;2023-10-09T16:52:25;14.80;;;6.13;;
77350;SDS011;66420;50.246;14.320;2023-10-09T16:55:10;15.10;;;6.78;;
77350;SDS011;66420;50.246;14.320;2023-10-09T16:57:55;13.13;;;5.90;;
77350;SDS011;66420;50.246;14.320;2023-10-09T17:00:41;14.73;;;5.97;;
77350;SDS011;66420;50.246;14.320;2023-10-09T17:03:30;13.32;;;6.05;;
77350;SDS011;66420;50.246;14.320;2023-10-09T17:06:14;10.82;;;5.47;;
77350;SDS011;66420;50.246;14.320;2023-10-09T17:09:03;15.73;;;6.78;;
77350;SDS011;66420;50.246;14.320;2023-10-09T17:11:50;13.95;;;6.60;;
77350;SDS011;66420;50.246;14.320;2023-10-09T17:14:37;12.55;;;6.78;;
77350;SDS011;66420;50.246;14.320;2023-10-09T17:17:23;16.98;;;6.35;;
77350;SDS011;66420;50.246;14.320;2023-10-09T17:20:08;12.13;;;5.85;;
77350;SDS011;66420;50.246;14.320;2023-10-09T17:22:55;13.85;;;7.57;;
77350;SDS011;66420;50.246;14.320;2023-10-09T17:25:44;15.07;;;6.47;;
77350;SDS011;66420;50.246;14.320;2023-10-09T17:28:29;15.00;;;6.63;;
77350;SDS011;66420;50.246;14.320;2023-10-09T17:31:14;12.70;;;6.68;;
77350;SDS011;66420;50.246;14.320;2023-10-09T17:34:04;16.15;;;7.80;;
77350;SDS011;66420;50.246;14.320;2023-10-09T17:36:53;27.48;;;12.88;;
77350;SDS011;66420;50.246;14.320;2023-10-09T17:39:37;14.85;;;7.72;;
77350;SDS011;66420;50.246;14.320;2023-10-09T17:42:22;19.50;;;9.88;;
77350;SDS011;66420;50.246;14.320;2023-10-09T17:45:09;17.65;;;7.60;;
77350;SDS011;66420;50.246;14.320;2023-10-09T17:47:54;23.63;;;11.85;;
77350;SDS011;66420;50.246;14.320;2023-10-09T17:50:42;14.88;;;8.20;;
77350;SDS011;66420;50.246;14.320;2023-10-09T17:53:31;13.80;;;8.00;;
77350;SDS011;66420;50.246;14.320;2023-10-09T17:56:15;18.08;;;8.10;;
77350;SDS011;66420;50.246;14.320;2023-10-09T17:59:03;16.85;;;7.30;;
77350;SDS011;66420;50.246;14.320;2023-10-09T18:01:48;15.00;;;7.55;;
77350;SDS011;66420;50.246;14.320;2023-10-09T18:04:33;14.32;;;7.32;;
77350;SDS011;66420;50.246;14.320;2023-10-09T18:07:19;16.50;;;8.45;;
77350;SDS011;66420;50.246;14.320;2023-10-09T18:10:04;14.18;;;6.93;;
77350;SDS011;66420;50.246;14.320;2023-10-09T18:12:50;17.92;;;7.15;;
77350;SDS011;66420;50.246;14.320;2023-10-09T18:15:35;15.60;;;8.13;;
77350;SDS011;66420;50.246;14.320;2023-10-09T18:18:19;11.75;;;6.43;;
77350;SDS011;66420;50.246;14.320;2023-10-09T18:21:04;12.50;;;6.95;;
77350;SDS011;66420;50.246;14.320;2023-10-09T18:23:50;12.07;;;6.72;;
77350;SDS011;66420;50.246;14.320;2023-10-09T18:26:40;15.65;;;7.80;;
77350;SDS011;66420;50.246;14.320;2023-10-09T18:29:25;16.50;;;8.10;;
77350;SDS011;66420;50.246;14.320;2023-10-09T18:32:13;16.55;;;7.93;;
77350;SDS011;66420;50.246;14.320;2023-10-09T18:34:59;14.77;;;8.18;;
77350;SDS011;66420;50.246;14.320;2023-10-09T18:37:44;15.25;;;8.00;;
77350;SDS011;66420;50.246;14.320;2023-10-09T18:40:29;17.30;;;8.55;;
77350;SDS011;66420;50.246;14.320;2023-10-09T18:43:17;11.25;;;6.97;;
77350;SDS011;66420;50.246;14.320;2023-10-09T18:46:03;11.38;;;6.22;;
77350;SDS011;66420;50.246;14.320;2023-10-09T18:48:55;11.85;;;6.80;;
77350;SDS011;66420;50.246;14.320;2023-10-09T18:51:45;10.10;;;6.00;;
77350;SDS011;66420;50.246;14.320;2023-10-09T18:54:31;13.20;;;6.78;;
77350;SDS011;66420;50.246;14.320;2023-10-09T18:57:20;13.10;;;6.45;;
77350;SDS011;66420;50.246;14.320;2023-10-09T19:00:08;13.30;;;6.50;;
77350;SDS011;66420;50.246;14.320;2023-10-09T19:03:04;12.32;;;6.15;;
77350;SDS011;66420;50.246;14.320;2023-10-09T19:05:54;14.52;;;6.47;;
77350;SDS011;66420;50.246;14.320;2023-10-09T19:08:40;11.40;;;6.25;;
77350;SDS011;66420;50.246;14.320;2023-10-09T19:11:25;12.27;;;6.05;;
77350;SDS011;66420;50.246;14.320;2023-10-09T19:14:10;11.88;;;6.28;;
77350;SDS011;66420;50.246;14.320;2023-10-09T19:16:57;12.07;;;6.53;;
77350;SDS011;66420;50.246;14.320;2023-10-09T19:19:43;14.45;;;7.40;;
77350;SDS011;66420;50.246;14.320;2023-10-09T19:22:28;16.58;;;7.93;;
77350;SDS011;66420;50.246;14.320;2023-10-09T19:25:13;15.55;;;8.25;;
77350;SDS011;66420;50.246;14.320;2023-10-09T19:28:01;16.27;;;8.07;;
77350;SDS011;66420;50.246;14.320;2023-10-09T19:30:45;13.73;;;7.95;;
77350;SDS011;66420;50.246;14.320;2023-10-09T19:33:31;14.07;;;7.57;;
77350;SDS011;66420;50.246;14.320;2023-10-09T19:36:20;13.52;;;7.45;;
77350;SDS011;66420;50.246;14.320;2023-10-09T19:39:10;13.32;;;7.32;;
77350;SDS011;66420;50.246;14.320;2023-10-09T19:41:55;11.55;;;6.53;;
77350;SDS011;66420;50.246;14.320;2023-10-09T19:44:41;14.98;;;7.28;;
77350;SDS011;66420;50.246;14.320;2023-10-09T19:47:26;14.85;;;6.95;;